createdAt,value
2023-02-14T00:00:56.527Z,63.33
2023-02-14T00:04:04.341Z,64.67
2023-02-14T00:07:08.359Z,63.67
2023-02-14T00:10:14.212Z,58.67
2023-02-14T00:18:01.491Z,54.67
2023-02-14T00:21:05.654Z,55.33
2023-02-14T00:24:40.777Z,59.00
2023-02-14T00:27:48.571Z,64.67
2023-02-14T00:30:53.444Z,60.33
2023-02-14T00:34:01.638Z,69.00
2023-02-14T00:37:05.819Z,72.00
2023-02-14T00:40:10.280Z,58.67
2023-02-14T00:43:17.817Z,60.67
2023-02-14T00:46:24.042Z,70.00
2023-02-14T00:49:29.102Z,87.50
2023-02-14T00:52:35.569Z,80.00
2023-02-14T00:55:41.149Z,83.75
2023-02-14T00:58:47.005Z,84.00
2023-02-14T01:01:51.420Z,90.00
2023-02-14T01:04:57.641Z,69.67
2023-02-14T01:08:02.090Z,71.67
2023-02-14T01:11:10.550Z,68.33
2023-02-14T01:14:17.015Z,67.00
2023-02-14T01:17:20.790Z,71.33
2023-02-14T01:20:25.189Z,65.33
2023-02-14T01:23:28.965Z,61.67
2023-02-14T01:26:33.389Z,74.67
2023-02-14T01:29:39.739Z,69.00
2023-02-14T01:32:43.598Z,94.25
2023-02-14T01:35:48.305Z,84.50
2023-02-14T01:38:53.908Z,96.75
2023-02-14T01:42:01.173Z,79.00
2023-02-14T01:45:10.217Z,90.00
2023-02-14T01:48:14.379Z,76.00
2023-02-14T01:51:21.195Z,75.33
2023-02-14T01:54:27.862Z,93.25
2023-02-14T01:57:37.137Z,102.00
2023-02-14T02:00:59.716Z,99.00
2023-02-14T02:04:09.832Z,85.00
2023-02-14T02:07:18.603Z,86.75
2023-02-14T02:10:23.916Z,92.75
2023-02-14T02:13:27.383Z,80.00
2023-02-14T02:17:01.286Z,79.50
2023-02-14T02:21:02.821Z,82.50
2023-02-14T02:24:27.846Z,87.25
2023-02-14T02:27:55.148Z,82.75
2023-02-14T02:31:22.101Z,92.00
2023-02-14T02:35:05.662Z,91.25
2023-02-14T02:38:25.945Z,83.00
2023-02-14T02:41:43.152Z,93.00
2023-02-14T02:44:59.968Z,50.75
2023-02-14T02:48:07.710Z,83.75
2023-02-14T02:51:39.608Z,80.00
2023-02-14T02:54:50.213Z,79.00
2023-02-14T02:57:56.903Z,75.00
2023-02-14T03:01:05.871Z,80.25
2023-02-14T03:04:31.054Z,87.75
2023-02-14T03:07:39.804Z,80.33
2023-02-14T03:10:51.786Z,48.33
2023-02-14T03:14:06.215Z,73.00
2023-02-14T03:17:22.616Z,79.67
2023-02-14T03:20:37.890Z,70.00
2023-02-14T03:23:53.093Z,66.33
2023-02-14T03:27:07.203Z,50.67
2023-02-14T03:30:42.236Z,68.00
2023-02-14T03:33:55.864Z,75.00
2023-02-14T03:37:06.980Z,49.00
2023-02-14T03:40:19.605Z,82.50
2023-02-14T03:43:29.608Z,77.67
2023-02-14T03:46:42.824Z,68.00
2023-02-14T03:49:50.032Z,60.67
2023-02-14T03:52:57.132Z,68.33
2023-02-14T03:56:10.139Z,62.33
2023-02-14T03:59:18.980Z,63.67
2023-02-14T04:02:27.641Z,73.33
2023-02-14T04:05:32.350Z,72.67
2023-02-14T04:08:38.010Z,84.75
2023-02-14T04:11:43.243Z,72.33
2023-02-14T04:14:47.188Z,91.00
2023-02-14T04:18:08.046Z,78.67
2023-02-14T04:21:12.346Z,93.50
2023-02-14T04:24:16.144Z,116.75
2023-02-14T04:27:21.511Z,128.50
2023-02-14T04:30:25.029Z,123.25
2023-02-14T04:33:30.489Z,124.75
2023-02-14T04:36:34.228Z,111.50
2023-02-14T04:39:38.694Z,91.25
2023-02-14T04:42:46.384Z,89.00
2023-02-14T04:45:50.534Z,93.50
2023-02-14T04:48:54.115Z,95.00
2023-02-14T04:51:58.865Z,91.25
2023-02-14T04:55:04.553Z,78.75
2023-02-14T04:58:10.488Z,72.50
2023-02-14T05:01:14.157Z,91.00
2023-02-14T05:04:18.341Z,86.00
2023-02-14T05:07:21.848Z,73.00
2023-02-14T05:10:25.790Z,64.67
2023-02-14T05:13:32.974Z,63.67
2023-02-14T05:16:37.061Z,66.00
2023-02-14T05:19:40.702Z,60.33
2023-02-14T05:22:46.436Z,61.33
2023-02-14T05:25:50.920Z,67.67
2023-02-14T05:28:56.984Z,59.00
2023-02-14T05:32:00.770Z,60.33
2023-02-14T05:35:05.136Z,62.00
2023-02-14T05:38:08.888Z,65.00
2023-02-14T05:41:13.418Z,73.67
2023-02-14T05:44:18.673Z,87.25
2023-02-14T05:47:23.443Z,83.75
2023-02-14T05:50:30.865Z,154.50
2023-02-14T05:53:35.888Z,81.33
2023-02-14T05:56:39.469Z,64.67
2023-02-14T05:59:44.805Z,83.00
2023-02-14T06:02:48.368Z,82.75
2023-02-14T06:05:52.272Z,69.00
2023-02-14T06:08:55.779Z,59.33
2023-02-14T06:11:59.722Z,53.33
2023-02-14T06:15:04.976Z,49.33
2023-02-14T06:18:08.912Z,61.33
2023-02-14T06:21:12.375Z,58.33
2023-02-14T06:24:16.224Z,69.67
2023-02-14T06:27:19.593Z,82.00
2023-02-14T06:30:25.785Z,65.33
2023-02-14T06:33:29.386Z,62.00
2023-02-14T06:36:33.821Z,63.00
2023-02-14T06:39:37.381Z,71.67
2023-02-14T06:42:41.171Z,66.00
2023-02-14T06:45:48.024Z,64.00
2023-02-14T06:48:53.045Z,85.67
2023-02-14T06:51:56.768Z,69.67
2023-02-14T06:55:01.268Z,57.00
2023-02-14T06:58:04.930Z,65.00
2023-02-14T07:01:10.957Z,56.67
2023-02-14T07:04:16.051Z,56.33
2023-02-14T07:07:21.049Z,48.67
2023-02-14T07:10:24.942Z,63.33
2023-02-14T07:13:29.263Z,54.00
2023-02-14T07:16:34.249Z,59.67
2023-02-14T07:19:38.357Z,59.67
2023-02-14T07:22:43.327Z,78.00
2023-02-14T07:25:47.883Z,70.00
2023-02-14T07:28:52.149Z,65.00
2023-02-14T07:31:59.870Z,63.67
2023-02-14T07:35:04.203Z,65.00
2023-02-14T07:38:08.867Z,64.33
2023-02-14T07:41:12.540Z,69.33
2023-02-14T07:44:16.425Z,85.75
2023-02-14T07:47:21.452Z,72.33
2023-02-14T07:50:25.659Z,99.75
2023-02-14T07:53:30.224Z,93.75
2023-02-14T07:56:34.249Z,80.00
2023-02-14T07:59:38.878Z,74.00
2023-02-14T08:02:46.449Z,87.25
2023-02-14T08:05:57.505Z,97.50
2023-02-14T08:09:02.268Z,77.33
2023-02-14T08:12:23.497Z,115.25
2023-02-14T08:15:45.305Z,97.00
2023-02-14T08:18:51.370Z,104.25
2023-02-14T08:21:56.474Z,73.00
2023-02-14T08:24:59.911Z,69.00
2023-02-14T08:28:04.693Z,69.67
2023-02-14T08:31:08.548Z,89.25
2023-02-14T08:34:14.025Z,107.00
2023-02-14T08:37:18.000Z,111.25
2023-02-14T08:40:22.356Z,117.50
2023-02-14T08:43:26.278Z,136.25
2023-02-14T08:46:30.719Z,44.00
2023-02-14T08:49:39.717Z,30.50
2023-02-14T08:52:45.533Z,43.00
2023-02-14T08:55:50.096Z,33.00
2023-02-14T08:58:55.113Z,31.50
2023-02-14T09:01:59.282Z,36.50
2023-02-14T09:05:04.556Z,17.75
2023-02-14T09:08:08.122Z,27.00
2023-02-14T09:11:14.146Z,22.00
2023-02-14T09:14:20.719Z,33.50
2023-02-14T09:17:24.725Z,39.50
2023-02-14T09:20:29.747Z,30.00
2023-02-14T09:23:33.761Z,29.50
2023-02-14T09:26:40.928Z,23.00
2023-02-14T09:29:45.358Z,29.50
2023-02-14T09:32:54.352Z,31.50
2023-02-14T09:36:18.493Z,29.25
2023-02-14T09:39:22.406Z,17.00
2023-02-14T09:42:52.785Z,29.50
2023-02-14T09:45:59.683Z,38.50
2023-02-14T09:49:04.542Z,30.25
2023-02-14T09:52:16.692Z,26.50
2023-02-14T09:55:21.330Z,27.50
2023-02-14T09:58:33.613Z,24.00
2023-02-14T10:01:44.940Z,31.50
2023-02-14T10:05:08.557Z,29.75
2023-02-14T10:08:29.523Z,21.00
2023-02-14T10:11:33.469Z,27.50
2023-02-14T10:14:41.257Z,24.25
2023-02-14T10:17:49.276Z,33.25
2023-02-14T10:20:59.655Z,35.00
2023-02-14T10:24:17.827Z,28.75
2023-02-14T10:27:31.989Z,25.25
2023-02-14T10:30:40.021Z,27.25
2023-02-14T10:33:50.820Z,24.00
2023-02-14T10:37:18.026Z,30.75
2023-02-14T10:40:55.288Z,25.50
2023-02-14T10:44:21.092Z,21.25
2023-02-14T10:47:39.829Z,30.00
2023-02-14T10:50:53.948Z,26.25
2023-02-14T10:54:14.973Z,29.50
2023-02-14T10:57:26.719Z,30.25
2023-02-14T11:00:36.401Z,25.00
2023-02-14T11:03:44.241Z,25.75
2023-02-14T11:06:50.311Z,27.00
2023-02-14T11:09:53.798Z,40.25
2023-02-14T11:13:00.225Z,28.50
2023-02-14T11:16:08.994Z,31.25
2023-02-14T11:19:22.450Z,26.00
2023-02-14T11:22:31.469Z,29.75
2023-02-14T11:25:36.805Z,33.75
2023-02-14T11:28:52.834Z,35.50
2023-02-14T11:32:08.694Z,30.75
2023-02-14T11:35:24.385Z,38.00
2023-02-14T11:38:31.850Z,42.25
2023-02-14T11:41:50.692Z,36.75
2023-02-14T11:44:59.695Z,38.00
2023-02-14T11:48:22.337Z,29.50
2023-02-14T11:51:36.385Z,26.25
2023-02-14T11:54:44.914Z,31.00
2023-02-14T11:57:49.150Z,37.25
2023-02-14T12:00:53.699Z,30.25
2023-02-14T12:04:03.222Z,31.00
2023-02-14T12:07:20.516Z,32.50
2023-02-14T12:10:27.123Z,45.25
2023-02-14T12:13:31.778Z,28.75
2023-02-14T12:16:41.423Z,29.00
2023-02-14T12:19:53.001Z,28.50
2023-02-14T12:23:03.197Z,27.50
2023-02-14T12:26:16.561Z,36.00
2023-02-14T12:29:27.862Z,36.25
2023-02-14T12:32:33.234Z,40.75
2023-02-14T12:35:48.867Z,30.00
2023-02-14T12:39:05.672Z,28.00
2023-02-14T12:42:24.734Z,27.25
2023-02-14T12:45:50.199Z,24.25
2023-02-14T12:49:14.858Z,28.75
2023-02-14T12:52:40.314Z,33.00
2023-02-14T12:55:58.256Z,35.00
2023-02-14T12:59:14.744Z,27.50
2023-02-14T13:02:53.874Z,37.00
2023-02-14T13:06:06.258Z,36.00
2023-02-14T13:09:25.895Z,32.50
2023-02-14T13:12:40.644Z,37.00
2023-02-14T13:15:53.427Z,31.25
2023-02-14T13:19:04.193Z,38.75
2023-02-14T13:22:16.201Z,37.00
2023-02-14T13:25:31.913Z,35.25
2023-02-14T13:28:39.162Z,30.25
2023-02-14T13:31:43.523Z,26.50
2023-02-14T13:34:49.449Z,29.00
2023-02-14T13:37:57.143Z,39.50
2023-02-14T13:41:06.106Z,33.75
2023-02-14T13:44:13.050Z,35.50
2023-02-14T13:47:19.909Z,43.50
2023-02-14T13:50:23.866Z,36.25
2023-02-14T13:53:40.575Z,34.25
2023-02-14T13:56:45.976Z,33.50
2023-02-14T14:00:25.464Z,34.25
2023-02-14T14:03:55.049Z,38.50
2023-02-14T14:07:25.670Z,35.25
2023-02-14T14:10:51.782Z,31.75
2023-02-14T14:14:04.537Z,37.50
2023-02-14T14:17:26.299Z,38.00
2023-02-14T14:20:52.674Z,34.00
2023-02-14T14:24:25.281Z,38.25
2023-02-14T14:27:34.644Z,46.67
2023-02-14T14:30:44.851Z,41.00
2023-02-14T14:33:59.517Z,40.75
2023-02-14T14:37:04.894Z,34.00
2023-02-14T14:40:23.481Z,39.75
2023-02-14T14:43:31.216Z,34.00
2023-02-14T14:46:36.846Z,30.75
2023-02-14T14:49:40.604Z,37.50
2023-02-14T14:52:48.843Z,35.00
2023-02-14T14:55:53.389Z,36.25
2023-02-14T14:59:18.106Z,31.75
2023-02-14T15:02:26.689Z,29.75
2023-02-14T15:05:35.247Z,38.00
2023-02-14T15:08:39.329Z,31.00
2023-02-14T15:12:03.002Z,42.50
2023-02-14T15:15:10.312Z,26.00
2023-02-14T15:18:17.890Z,38.50
2023-02-14T15:21:23.443Z,41.00
2023-02-14T15:24:28.223Z,42.75
2023-02-14T15:27:35.139Z,40.50
2023-02-14T15:30:44.139Z,25.50
2023-02-14T15:33:49.515Z,35.50
2023-02-14T15:37:03.764Z,29.00
2023-02-14T15:40:10.012Z,32.00
2023-02-14T15:43:27.897Z,27.50
2023-02-14T15:46:38.615Z,39.00
2023-02-14T15:49:46.608Z,42.00
2023-02-14T15:52:50.862Z,28.50
2023-02-14T15:56:02.636Z,32.75
2023-02-14T15:59:09.014Z,41.50
2023-02-14T16:02:27.915Z,34.00
2023-02-14T16:05:33.109Z,25.00
2023-02-14T16:08:39.264Z,33.00
2023-02-14T16:11:43.137Z,28.25
2023-02-14T16:14:47.361Z,36.50
2023-02-14T16:17:50.989Z,38.00
2023-02-14T16:20:56.761Z,39.25
2023-02-14T16:24:15.050Z,41.75
2023-02-14T16:27:20.575Z,49.67
2023-02-14T16:30:25.793Z,54.00
2023-02-14T16:33:31.504Z,69.67
2023-02-14T16:36:36.564Z,72.33
2023-02-14T16:39:41.066Z,40.00
2023-02-14T16:42:45.081Z,44.50
2023-02-14T16:45:50.491Z,33.75
2023-02-14T16:48:54.211Z,43.00
2023-02-14T16:51:59.806Z,44.75
2023-02-14T16:55:06.199Z,44.25
2023-02-14T16:58:11.892Z,41.50
2023-02-14T17:01:17.726Z,60.67
2023-02-14T17:04:23.237Z,52.33
2023-02-14T17:07:30.408Z,49.00
2023-02-14T17:10:35.156Z,45.50
2023-02-14T17:13:41.174Z,59.67
2023-02-14T17:16:45.603Z,56.33
2023-02-14T17:19:52.648Z,51.67
2023-02-14T17:22:58.504Z,48.75
2023-02-14T17:26:01.978Z,36.00
2023-02-14T17:29:06.859Z,41.00
2023-02-14T17:32:12.461Z,38.50
2023-02-14T17:35:16.803Z,37.25
2023-02-14T17:38:22.649Z,44.25
2023-02-14T17:41:29.627Z,41.00
2023-02-14T17:44:36.034Z,43.00
2023-02-14T17:47:43.618Z,49.00
2023-02-14T17:50:47.548Z,45.00
2023-02-14T17:53:58.554Z,35.75
2023-02-14T17:57:02.479Z,41.00
2023-02-14T18:00:10.074Z,51.00
2023-02-14T18:03:17.565Z,67.00
2023-02-14T18:06:22.440Z,48.00
2023-02-14T18:09:27.378Z,42.75
2023-02-14T18:12:32.881Z,36.67
2023-02-14T18:15:36.714Z,62.33
2023-02-14T18:18:41.147Z,45.50
2023-02-14T18:21:47.519Z,49.25
2023-02-14T18:24:58.792Z,73.33
2023-02-14T18:28:04.877Z,101.75
2023-02-14T18:31:12.142Z,61.33
2023-02-14T18:34:15.900Z,125.00
2023-02-14T18:37:19.864Z,57.33
2023-02-14T18:40:24.789Z,58.33
2023-02-14T18:43:29.092Z,68.33
2023-02-14T18:46:35.654Z,72.00
2023-02-14T18:49:42.221Z,43.50
2023-02-14T18:52:48.499Z,54.33
2023-02-14T18:55:56.368Z,39.50
2023-02-14T18:59:01.634Z,44.75
2023-02-14T19:02:09.485Z,44.25
2023-02-14T19:05:13.081Z,39.00
2023-02-14T19:08:17.402Z,48.33
2023-02-14T19:11:27.108Z,54.33
2023-02-14T19:14:34.413Z,61.67
2023-02-14T19:17:39.381Z,80.25
2023-02-14T19:20:45.914Z,47.00
2023-02-14T19:23:51.935Z,51.00
2023-02-14T19:26:57.899Z,47.67
2023-02-14T19:30:03.656Z,62.00
2023-02-14T19:33:09.789Z,57.00
2023-02-14T19:36:15.861Z,46.75
2023-02-14T19:39:23.175Z,44.00
2023-02-14T19:42:29.001Z,45.25
2023-02-14T19:45:33.830Z,42.75
2023-02-14T19:48:37.721Z,44.75
2023-02-14T19:51:41.918Z,45.25
2023-02-14T19:54:45.833Z,48.50
2023-02-14T19:57:51.656Z,44.50
2023-02-14T20:00:59.063Z,53.67
2023-02-14T20:04:05.233Z,54.33
2023-02-14T20:07:08.922Z,42.00
2023-02-14T20:10:15.043Z,53.67
2023-02-14T20:13:21.701Z,36.50
2023-02-14T20:16:28.593Z,41.00
2023-02-14T20:19:36.587Z,30.00
2023-02-14T20:22:42.077Z,41.25
2023-02-14T20:25:45.788Z,37.75
2023-02-14T20:28:53.272Z,38.75
2023-02-14T20:32:03.953Z,39.50
2023-02-14T20:35:09.772Z,35.75
2023-02-14T20:38:13.229Z,37.00
2023-02-14T20:41:17.913Z,34.00
2023-02-14T20:44:23.079Z,32.75
2023-02-14T20:47:28.727Z,35.00
2023-02-14T20:50:32.377Z,34.75
2023-02-14T20:53:36.731Z,38.25
2023-02-14T20:56:40.355Z,38.75
2023-02-14T20:59:46.268Z,38.25
2023-02-14T21:02:49.800Z,40.25
2023-02-14T21:05:54.112Z,35.75
2023-02-14T21:08:58.648Z,36.25
2023-02-14T21:12:02.800Z,36.25
2023-02-14T21:15:10.274Z,37.25
2023-02-14T21:18:14.858Z,35.00
2023-02-14T21:21:23.308Z,35.75
2023-02-14T21:24:28.948Z,40.00
2023-02-14T21:27:33.131Z,37.50
2023-02-14T21:30:41.510Z,35.75
2023-02-14T21:33:45.796Z,38.75
2023-02-14T21:36:50.123Z,39.75
2023-02-14T21:39:54.213Z,43.25
2023-02-14T21:42:58.996Z,45.25
2023-02-14T21:46:05.767Z,61.00
2023-02-14T21:49:27.009Z,46.33
2023-02-14T21:52:31.316Z,41.00
2023-02-14T21:55:35.828Z,40.25
2023-02-14T21:58:40.138Z,39.25
2023-02-14T22:01:46.001Z,37.00
2023-02-14T22:04:49.698Z,35.00
2023-02-14T22:07:53.678Z,35.50
2023-02-14T22:10:57.311Z,42.00
2023-02-14T22:14:01.714Z,34.00
2023-02-14T22:17:06.641Z,36.00
2023-02-14T22:20:11.988Z,38.75
2023-02-14T22:23:15.736Z,43.25
2023-02-14T22:26:22.980Z,39.75
2023-02-14T22:29:27.330Z,34.25
2023-02-14T22:32:33.144Z,30.25
2023-02-14T22:35:37.806Z,33.00
2023-02-14T22:38:44.697Z,36.25
2023-02-14T22:41:50.651Z,49.67
2023-02-14T22:44:54.604Z,40.50
2023-02-14T22:47:59.851Z,34.25
2023-02-14T22:51:12.048Z,37.00
2023-02-14T22:54:17.600Z,33.50
2023-02-14T22:57:21.530Z,38.25
2023-02-14T23:00:26.713Z,29.50
2023-02-14T23:03:32.456Z,30.00
2023-02-14T23:06:37.717Z,35.50
2023-02-14T23:09:41.749Z,31.50
2023-02-14T23:13:02.417Z,32.25
2023-02-14T23:16:23.759Z,41.50
2023-02-14T23:19:48.798Z,43.75
2023-02-14T23:22:52.760Z,33.50
2023-02-14T23:25:57.455Z,36.00
2023-02-14T23:29:01.721Z,32.00
2023-02-14T23:32:05.533Z,29.00
2023-02-14T23:35:11.965Z,37.00
2023-02-14T23:38:15.489Z,38.00
2023-02-14T23:41:36.806Z,36.25
2023-02-14T23:44:40.549Z,37.50
2023-02-14T23:47:45.058Z,36.25
2023-02-14T23:50:50.289Z,43.75
2023-02-14T23:53:54.502Z,41.00
2023-02-14T23:57:01.358Z,43.75
